createdAt,value
2022-11-28T00:01:37.473Z,32.93
2022-11-28T00:04:05.900Z,31.00
2022-11-28T00:06:36.922Z,31.13
2022-11-28T00:09:07.052Z,31.43
2022-11-28T00:11:35.405Z,31.57
2022-11-28T00:14:03.430Z,30.93
2022-11-28T00:16:31.489Z,30.63
2022-11-28T00:19:01.593Z,31.70
2022-11-28T00:21:31.168Z,31.50
2022-11-28T00:24:00.483Z,32.80
2022-11-28T00:26:32.083Z,33.03
2022-11-28T00:29:01.388Z,32.83
2022-11-28T00:31:31.284Z,33.53
2022-11-28T00:33:59.406Z,32.63
2022-11-28T00:36:27.383Z,31.67
2022-11-28T00:38:55.600Z,30.13
2022-11-28T00:41:25.564Z,30.20
2022-11-28T00:43:55.476Z,27.60
2022-11-28T00:46:24.539Z,28.87
2022-11-28T00:48:52.818Z,27.90
2022-11-28T00:51:22.784Z,27.87
2022-11-28T00:53:52.716Z,29.70
2022-11-28T00:56:23.239Z,28.03
2022-11-28T00:58:51.715Z,29.67
2022-11-28T01:01:23.570Z,28.57
2022-11-28T01:03:53.607Z,28.17
2022-11-28T01:06:23.627Z,28.17
2022-11-28T01:08:51.737Z,27.90
2022-11-28T01:11:20.320Z,27.07
2022-11-28T01:13:48.427Z,25.17
2022-11-28T01:16:16.883Z,26.00
2022-11-28T01:18:46.405Z,25.60
2022-11-28T01:21:14.723Z,25.20
2022-11-28T01:23:42.750Z,25.67
2022-11-28T01:26:13.079Z,26.47
2022-11-28T01:28:41.063Z,26.03
2022-11-28T01:31:12.493Z,26.03
2022-11-28T01:33:40.523Z,25.80
2022-11-28T01:36:11.404Z,26.50
2022-11-28T01:38:39.882Z,26.27
2022-11-28T01:41:08.137Z,25.87
2022-11-28T01:43:36.919Z,25.03
2022-11-28T01:46:06.799Z,26.10
2022-11-28T01:48:41.216Z,27.27
2022-11-28T01:51:11.930Z,25.67
2022-11-28T01:53:44.060Z,24.53
2022-11-28T01:56:18.669Z,26.57
2022-11-28T01:58:50.117Z,24.53
2022-11-28T02:01:19.811Z,26.03
2022-11-28T02:03:50.636Z,25.33
2022-11-28T02:06:23.285Z,24.87
2022-11-28T02:08:52.691Z,25.43
2022-11-28T02:11:46.386Z,26.07
2022-11-28T02:14:30.887Z,26.43
2022-11-28T02:17:14.199Z,24.43
2022-11-28T02:20:16.451Z,25.80
2022-11-28T02:22:52.038Z,24.77
2022-11-28T02:25:40.454Z,25.43
2022-11-28T02:28:34.674Z,25.80
2022-11-28T02:31:18.208Z,26.53
2022-11-28T02:33:50.020Z,26.93
2022-11-28T02:36:25.040Z,26.23
2022-11-28T02:39:04.445Z,27.03
2022-11-28T02:41:38.160Z,28.10
2022-11-28T02:44:15.532Z,27.93
2022-11-28T02:46:51.829Z,27.10
2022-11-28T02:49:24.847Z,28.93
2022-11-28T02:51:57.567Z,27.83
2022-11-28T02:54:27.317Z,26.63
2022-11-28T02:56:56.515Z,26.83
2022-11-28T02:59:34.114Z,28.03
2022-11-28T03:02:03.260Z,29.30
2022-11-28T03:04:40.468Z,28.77
2022-11-28T03:07:22.305Z,27.63
2022-11-28T03:09:59.571Z,28.27
2022-11-28T03:12:35.781Z,28.73
2022-11-28T03:15:07.211Z,28.23
2022-11-28T03:17:51.220Z,27.70
2022-11-28T03:20:25.160Z,27.30
2022-11-28T03:23:06.070Z,28.10
2022-11-28T03:25:38.984Z,26.37
2022-11-28T03:28:11.898Z,27.57
2022-11-28T03:30:46.087Z,27.20
2022-11-28T03:33:17.133Z,27.50
2022-11-28T03:35:50.260Z,26.30
2022-11-28T03:38:22.782Z,29.47
2022-11-28T03:40:55.853Z,28.07
2022-11-28T03:43:29.073Z,26.00
2022-11-28T03:46:00.388Z,26.70
2022-11-28T03:48:32.585Z,27.63
2022-11-28T03:51:04.623Z,27.73
2022-11-28T03:53:37.009Z,27.20
2022-11-28T03:56:11.435Z,26.80
2022-11-28T03:58:44.862Z,27.83
2022-11-28T04:01:21.987Z,27.67
2022-11-28T04:03:55.003Z,27.53
2022-11-28T04:06:29.086Z,27.90
2022-11-28T04:09:04.827Z,26.80
2022-11-28T04:11:38.555Z,27.27
2022-11-28T04:14:14.163Z,27.13
2022-11-28T04:16:53.955Z,26.87
2022-11-28T04:19:30.018Z,26.00
2022-11-28T04:22:04.140Z,27.03
2022-11-28T04:24:37.492Z,28.33
2022-11-28T04:27:09.126Z,28.13
2022-11-28T04:29:44.035Z,27.90
2022-11-28T04:32:14.742Z,26.77
2022-11-28T04:34:46.559Z,27.33
2022-11-28T04:37:17.383Z,27.30
2022-11-28T04:39:49.127Z,27.70
2022-11-28T04:42:21.751Z,24.97
2022-11-28T04:44:54.411Z,25.70
2022-11-28T04:47:23.347Z,25.40
2022-11-28T04:49:51.567Z,25.67
2022-11-28T04:52:25.354Z,26.10
2022-11-28T04:54:58.751Z,24.60
2022-11-28T04:57:31.670Z,26.23
2022-11-28T05:00:02.527Z,27.00
2022-11-28T05:02:31.336Z,25.10
2022-11-28T05:04:59.682Z,26.17
2022-11-28T05:07:29.211Z,26.20
2022-11-28T05:09:57.682Z,26.30
2022-11-28T05:12:25.692Z,25.73
2022-11-28T05:14:53.693Z,25.57
2022-11-28T05:17:21.724Z,24.57
2022-11-28T05:19:49.686Z,24.53
2022-11-28T05:22:17.685Z,24.30
2022-11-28T05:24:47.139Z,24.27
2022-11-28T05:27:15.141Z,24.87
2022-11-28T05:29:48.113Z,24.00
2022-11-28T05:32:19.946Z,23.67
2022-11-28T05:34:48.151Z,23.83
2022-11-28T05:37:16.804Z,24.07
2022-11-28T05:39:46.159Z,23.67
2022-11-28T05:42:14.128Z,23.67
2022-11-28T05:44:42.124Z,24.77
2022-11-28T05:47:10.197Z,22.83
2022-11-28T05:49:38.223Z,24.07
2022-11-28T05:52:06.262Z,23.57
2022-11-28T05:54:34.316Z,23.70
2022-11-28T05:57:06.179Z,23.63
2022-11-28T05:59:34.443Z,23.47
2022-11-28T06:02:02.532Z,21.77
2022-11-28T06:04:30.600Z,24.23
2022-11-28T06:06:58.604Z,22.80
2022-11-28T06:09:26.608Z,23.03
2022-11-28T06:11:54.715Z,22.40
2022-11-28T06:14:24.069Z,22.57
2022-11-28T06:16:52.583Z,21.70
2022-11-28T06:19:20.632Z,21.90
2022-11-28T06:21:50.797Z,22.53
2022-11-28T06:24:21.859Z,21.30
2022-11-28T06:26:49.887Z,22.67
2022-11-28T06:29:17.860Z,21.40
2022-11-28T06:31:47.345Z,21.37
2022-11-28T06:34:15.446Z,23.13
2022-11-28T06:36:44.576Z,20.50
2022-11-28T06:39:15.647Z,21.53
2022-11-28T06:41:44.216Z,20.43
2022-11-28T06:44:15.106Z,21.83
2022-11-28T06:46:43.796Z,22.47
2022-11-28T06:49:13.986Z,21.60
2022-11-28T06:51:42.906Z,22.53
2022-11-28T06:54:11.121Z,23.37
2022-11-28T06:56:40.738Z,22.37
2022-11-28T06:59:11.276Z,23.53
2022-11-28T07:01:39.428Z,22.87
2022-11-28T07:04:07.501Z,22.70
2022-11-28T07:06:36.944Z,22.30
2022-11-28T07:09:05.599Z,22.90
2022-11-28T07:11:33.869Z,21.43
2022-11-28T07:14:02.982Z,21.47
2022-11-28T07:16:33.277Z,21.10
2022-11-28T07:19:01.867Z,20.30
2022-11-28T07:21:30.855Z,21.00
2022-11-28T07:24:00.915Z,20.00
2022-11-28T07:26:28.966Z,20.23
2022-11-28T07:28:58.261Z,22.23
2022-11-28T07:31:31.706Z,21.40
2022-11-28T07:34:02.138Z,22.17
2022-11-28T07:36:31.176Z,20.60
2022-11-28T07:39:02.908Z,21.43
2022-11-28T07:41:30.912Z,21.17
2022-11-28T07:44:00.362Z,20.60
2022-11-28T07:46:31.031Z,20.83
2022-11-28T07:48:59.189Z,20.57
2022-11-28T07:51:29.470Z,20.47
2022-11-28T07:53:57.746Z,20.17
2022-11-28T07:56:39.349Z,20.47
2022-11-28T07:59:17.560Z,19.07
2022-11-28T08:01:45.673Z,18.30
2022-11-28T08:04:13.758Z,17.90
2022-11-28T08:06:44.310Z,18.63
2022-11-28T08:09:13.045Z,19.47
2022-11-28T08:11:43.003Z,19.40
2022-11-28T08:14:12.171Z,17.63
2022-11-28T08:16:44.789Z,18.13
2022-11-28T08:19:13.267Z,18.33
2022-11-28T08:21:41.380Z,17.77
2022-11-28T08:24:09.896Z,17.07
2022-11-28T08:26:37.926Z,16.90
2022-11-28T08:29:07.447Z,17.70
2022-11-28T08:31:37.571Z,16.77
2022-11-28T08:34:07.200Z,16.93
2022-11-28T08:36:35.236Z,17.33
2022-11-28T08:41:54.226Z,16.67
2022-11-28T08:44:23.620Z,15.73
2022-11-28T08:46:51.720Z,16.07
2022-11-28T08:49:19.862Z,16.37
2022-11-28T08:51:47.858Z,15.50
2022-11-28T08:54:16.436Z,16.50
2022-11-28T08:56:45.239Z,16.30
2022-11-28T08:59:16.447Z,15.53
2022-11-28T09:01:45.985Z,15.43
2022-11-28T09:04:14.130Z,15.57
2022-11-28T09:06:42.407Z,16.57
2022-11-28T09:09:10.461Z,15.73
2022-11-28T09:11:38.737Z,16.07
2022-11-28T09:14:07.491Z,15.87
2022-11-28T09:16:35.599Z,15.43
2022-11-28T09:19:06.879Z,16.30
2022-11-28T09:21:34.900Z,16.20
2022-11-28T09:24:03.003Z,15.37
2022-11-28T09:26:34.079Z,16.33
2022-11-28T09:29:02.394Z,15.53
2022-11-28T09:31:30.436Z,16.67
2022-11-28T09:33:58.521Z,16.70
2022-11-28T09:36:28.580Z,15.93
2022-11-28T09:38:56.563Z,15.53
2022-11-28T09:41:51.112Z,14.80
2022-11-28T09:44:23.917Z,13.33
2022-11-28T09:46:55.778Z,17.13
2022-11-28T09:49:36.718Z,14.50
2022-11-28T09:52:22.809Z,14.67
2022-11-28T09:54:59.532Z,15.13
2022-11-28T09:57:33.557Z,12.87
2022-11-28T10:00:02.419Z,12.90
2022-11-28T10:02:36.804Z,14.53
2022-11-28T10:05:15.771Z,13.90
2022-11-28T10:07:59.370Z,13.67
2022-11-28T10:10:39.371Z,13.60
2022-11-28T10:13:14.900Z,12.97
2022-11-28T10:15:50.555Z,12.53
2022-11-28T10:18:29.276Z,12.93
2022-11-28T10:21:01.696Z,13.67
2022-11-28T10:23:35.761Z,12.57
2022-11-28T10:26:08.536Z,13.00
2022-11-28T10:28:39.225Z,12.93
2022-11-28T10:31:10.612Z,12.40
2022-11-28T10:33:44.334Z,13.13
2022-11-28T10:36:21.716Z,12.87
2022-11-28T10:38:53.714Z,13.20
2022-11-28T10:41:28.755Z,12.47
2022-11-28T10:44:02.999Z,12.37
2022-11-28T10:46:50.905Z,12.57
2022-11-28T10:49:30.242Z,11.80
2022-11-28T10:52:05.039Z,12.17
2022-11-28T10:54:52.787Z,13.13
2022-11-28T10:57:25.324Z,12.67
2022-11-28T11:00:04.037Z,13.23
2022-11-28T11:02:41.220Z,13.83
2022-11-28T11:05:14.365Z,12.87
2022-11-28T11:07:48.056Z,12.93
2022-11-28T11:10:19.385Z,12.77
2022-11-28T11:12:48.556Z,12.93
2022-11-28T11:15:21.328Z,12.43
2022-11-28T11:17:50.892Z,11.73
2022-11-28T11:20:33.449Z,13.97
2022-11-28T11:23:03.421Z,12.40
2022-11-28T11:25:33.632Z,12.53
2022-11-28T11:28:05.173Z,11.73
2022-11-28T11:30:38.853Z,13.47
2022-11-28T11:33:13.770Z,12.13
2022-11-28T11:35:46.032Z,12.00
2022-11-28T11:38:19.756Z,11.63
2022-11-28T11:40:51.956Z,12.73
2022-11-28T11:43:34.080Z,12.50
2022-11-28T11:46:07.298Z,12.10
2022-11-28T11:48:37.645Z,12.23
2022-11-28T11:51:06.008Z,12.47
2022-11-28T11:53:34.059Z,12.07
2022-11-28T11:56:05.241Z,15.30
2022-11-28T11:58:42.401Z,12.47
2022-11-28T12:01:12.986Z,12.63
2022-11-28T12:03:47.437Z,15.80
2022-11-28T12:06:22.998Z,13.50
2022-11-28T12:08:52.840Z,12.47
2022-11-28T12:11:27.543Z,13.90
2022-11-28T12:13:58.353Z,13.83
2022-11-28T12:16:39.199Z,17.87
2022-11-28T12:19:20.294Z,13.73
2022-11-28T12:22:03.769Z,12.97
2022-11-28T12:24:41.756Z,14.00
2022-11-28T12:27:31.894Z,13.57
2022-11-28T12:30:10.944Z,12.43
2022-11-28T12:32:49.052Z,11.60
2022-11-28T12:35:28.688Z,13.90
2022-11-28T12:38:11.125Z,12.37
2022-11-28T12:40:51.160Z,13.03
2022-11-28T12:43:35.473Z,12.67
2022-11-28T12:46:12.245Z,12.87
2022-11-28T12:48:53.996Z,12.67
2022-11-28T12:51:30.924Z,13.20
2022-11-28T12:54:11.238Z,12.90
2022-11-28T12:56:51.560Z,13.03
2022-11-28T12:59:27.946Z,13.37
2022-11-28T13:02:08.246Z,12.80
2022-11-28T13:05:00.940Z,13.23
2022-11-28T13:07:40.951Z,13.73
2022-11-28T13:10:18.966Z,13.03
2022-11-28T13:12:55.204Z,13.73
2022-11-28T13:15:37.575Z,12.30
2022-11-28T13:18:18.599Z,13.00
2022-11-28T13:20:53.368Z,12.13
2022-11-28T13:23:28.568Z,12.50
2022-11-28T13:26:04.354Z,13.37
2022-11-28T13:28:39.694Z,14.20
2022-11-28T13:31:22.718Z,14.73
2022-11-28T13:33:53.028Z,13.43
2022-11-28T13:39:31.258Z,12.20
2022-11-28T13:45:02.846Z,12.90
2022-11-28T13:47:36.015Z,11.17
2022-11-28T13:50:41.875Z,11.60
2022-11-28T13:53:26.180Z,11.57
2022-11-28T13:56:24.734Z,10.53
2022-11-28T13:58:59.140Z,10.43
2022-11-28T14:01:28.529Z,10.57
2022-11-28T14:04:08.684Z,9.77
2022-11-28T14:06:44.675Z,10.93
2022-11-28T14:09:29.649Z,11.20
2022-11-28T14:12:28.880Z,11.23
2022-11-28T14:15:10.713Z,12.13
2022-11-28T14:17:52.009Z,12.53
2022-11-28T14:20:33.216Z,12.00
2022-11-28T14:23:22.126Z,12.60
2022-11-28T14:25:51.802Z,13.60
2022-11-28T14:28:25.516Z,14.30
2022-11-28T14:31:02.190Z,14.80
2022-11-28T14:33:36.787Z,15.33
2022-11-28T14:36:24.695Z,14.87
2022-11-28T14:39:20.836Z,15.43
2022-11-28T14:42:58.747Z,14.80
2022-11-28T14:45:40.939Z,16.07
2022-11-28T14:48:18.000Z,15.43
2022-11-28T14:50:55.926Z,16.63
2022-11-28T14:53:45.530Z,14.63
2022-11-28T14:56:27.528Z,15.87
2022-11-28T14:58:59.105Z,15.70
2022-11-28T15:01:52.391Z,16.00
2022-11-28T15:04:44.617Z,15.97
2022-11-28T15:07:27.634Z,16.30
2022-11-28T15:10:08.073Z,16.37
2022-11-28T15:12:51.807Z,14.97
2022-11-28T15:15:20.473Z,15.10
2022-11-28T15:17:52.405Z,15.43
2022-11-28T15:20:25.607Z,14.67
2022-11-28T15:22:56.083Z,14.70
2022-11-28T15:25:27.136Z,15.93
2022-11-28T15:27:56.794Z,14.80
2022-11-28T15:30:27.074Z,15.73
2022-11-28T15:32:58.720Z,15.83
2022-11-28T15:35:27.713Z,14.93
2022-11-28T15:37:57.985Z,15.90
2022-11-28T15:40:32.781Z,16.57
2022-11-28T15:43:01.756Z,17.03
2022-11-28T15:45:32.313Z,16.70
2022-11-28T15:48:00.670Z,16.50
2022-11-28T15:50:31.425Z,16.67
2022-11-28T15:53:00.937Z,16.77
2022-11-28T15:55:32.640Z,16.43
2022-11-28T15:58:21.488Z,17.10
2022-11-28T16:00:55.350Z,16.63
2022-11-28T16:03:27.264Z,16.67
2022-11-28T16:05:58.553Z,16.37
2022-11-28T16:08:30.151Z,16.90
2022-11-28T16:11:01.324Z,16.97
2022-11-28T16:13:31.468Z,18.40
2022-11-28T16:16:01.434Z,18.87
2022-11-28T16:18:30.603Z,18.77
2022-11-28T16:21:00.915Z,19.30
2022-11-28T16:23:31.231Z,19.00
2022-11-28T16:26:05.999Z,18.77
2022-11-28T16:28:35.792Z,20.30
2022-11-28T16:31:10.934Z,20.10
2022-11-28T16:33:41.243Z,19.97
2022-11-28T16:36:14.353Z,21.47
2022-11-28T16:38:43.772Z,19.87
2022-11-28T16:41:19.087Z,20.23
2022-11-28T16:43:51.012Z,19.03
2022-11-28T16:46:22.796Z,20.33
2022-11-28T16:48:54.593Z,20.50
2022-11-28T16:51:33.269Z,19.33
2022-11-28T16:54:02.155Z,19.30
2022-11-28T16:56:45.379Z,19.83
2022-11-28T16:59:15.924Z,20.27
2022-11-28T17:01:46.073Z,20.37
2022-11-28T17:04:22.547Z,19.20
2022-11-28T17:06:50.978Z,19.27
2022-11-28T17:09:19.440Z,18.30
2022-11-28T17:11:55.466Z,18.23
2022-11-28T17:14:23.480Z,17.23
2022-11-28T17:16:51.803Z,18.60
2022-11-28T17:19:19.868Z,17.00
2022-11-28T17:21:51.049Z,17.33
2022-11-28T17:24:23.122Z,17.63
2022-11-28T17:26:54.041Z,18.37
2022-11-28T17:29:22.875Z,17.17
2022-11-28T17:31:51.110Z,18.43
2022-11-28T17:34:21.520Z,18.23
2022-11-28T17:36:50.142Z,18.17
2022-11-28T17:39:18.779Z,17.93
2022-11-28T17:41:47.821Z,17.60
2022-11-28T17:44:22.446Z,17.63
2022-11-28T17:46:51.489Z,17.57
2022-11-28T17:49:20.272Z,18.57
2022-11-28T17:51:48.480Z,17.30
2022-11-28T17:54:18.830Z,16.50
2022-11-28T17:56:47.732Z,17.50
2022-11-28T17:59:18.595Z,17.93
2022-11-28T18:01:47.261Z,19.00
2022-11-28T18:04:15.675Z,17.10
2022-11-28T18:06:45.183Z,19.30
2022-11-28T18:09:14.811Z,21.40
2022-11-28T18:11:46.249Z,20.67
2022-11-28T18:14:14.550Z,20.20
2022-11-28T18:16:44.170Z,21.20
2022-11-28T18:19:14.852Z,21.47
2022-11-28T18:21:42.951Z,20.53
2022-11-28T18:24:10.950Z,21.33
2022-11-28T18:26:38.989Z,20.93
2022-11-28T18:29:07.968Z,20.40
2022-11-28T18:31:37.258Z,21.53
2022-11-28T18:34:07.908Z,21.03
2022-11-28T18:36:38.350Z,21.20
2022-11-28T18:39:09.333Z,21.00
2022-11-28T18:41:39.364Z,21.97
2022-11-28T18:44:07.905Z,22.07
2022-11-28T18:46:36.463Z,21.13
2022-11-28T18:49:06.065Z,20.90
2022-11-28T18:51:36.782Z,21.43
2022-11-28T18:54:06.229Z,21.90
2022-11-28T18:56:35.001Z,21.60
2022-11-28T18:59:03.047Z,20.90
2022-11-28T19:01:33.141Z,22.03
2022-11-28T19:04:02.970Z,22.40
2022-11-28T19:06:33.092Z,23.37
2022-11-28T19:09:03.095Z,21.83
2022-11-28T19:11:33.556Z,21.77
2022-11-28T19:14:01.640Z,21.73
2022-11-28T19:16:31.709Z,21.80
2022-11-28T19:19:01.543Z,22.13
2022-11-28T19:21:34.037Z,23.43
2022-11-28T19:24:02.971Z,23.83
2022-11-28T19:26:33.603Z,24.23
2022-11-28T19:29:02.247Z,24.10
2022-11-28T19:31:31.818Z,24.93
2022-11-28T19:34:01.982Z,24.67
2022-11-28T19:36:31.075Z,25.10
2022-11-28T19:39:00.912Z,24.97
2022-11-28T19:41:29.848Z,24.83
2022-11-28T19:43:58.005Z,27.33
2022-11-28T19:46:29.215Z,26.40
2022-11-28T19:49:00.179Z,25.77
2022-11-28T19:51:28.425Z,27.03
2022-11-28T19:54:02.669Z,26.37
2022-11-28T19:56:32.895Z,25.77
2022-11-28T19:59:01.364Z,27.40
2022-11-28T20:01:31.183Z,26.10
2022-11-28T20:03:59.780Z,28.43
2022-11-28T20:06:29.704Z,29.67
2022-11-28T20:09:00.676Z,29.60
2022-11-28T20:11:32.180Z,28.80
2022-11-28T20:14:04.021Z,30.13
2022-11-28T20:16:33.346Z,30.70
2022-11-28T20:19:02.785Z,30.10
2022-11-28T20:21:31.873Z,31.67
2022-11-28T20:24:04.276Z,31.33
2022-11-28T20:26:37.929Z,30.67
2022-11-28T20:29:08.203Z,30.90
2022-11-28T20:31:37.984Z,30.97
2022-11-28T20:34:07.099Z,30.30
2022-11-28T20:36:36.276Z,30.37
2022-11-28T20:39:05.832Z,30.47
2022-11-28T20:41:34.521Z,30.00
2022-11-28T20:44:02.624Z,28.83
2022-11-28T20:46:35.570Z,28.97
2022-11-28T20:49:05.521Z,29.23
2022-11-28T20:51:35.433Z,27.77
2022-11-28T20:54:06.103Z,29.00
2022-11-28T20:57:05.004Z,28.33
2022-11-28T20:59:27.156Z,27.83
2022-11-28T21:01:56.620Z,29.43
2022-11-28T21:04:24.665Z,28.67
2022-11-28T21:06:52.768Z,27.77
2022-11-28T21:09:20.818Z,28.93
2022-11-28T21:11:58.655Z,28.03
2022-11-28T21:14:27.946Z,27.77
2022-11-28T21:16:57.587Z,27.13
2022-11-28T21:19:25.892Z,27.50
2022-11-28T21:21:53.968Z,28.97
2022-11-28T21:24:22.318Z,26.93
2022-11-28T21:26:54.056Z,27.43
2022-11-28T21:29:23.455Z,28.70
2022-11-28T21:31:51.551Z,29.40
2022-11-28T21:34:22.314Z,27.60
2022-11-28T21:36:50.870Z,28.27
2022-11-28T21:39:21.857Z,28.13
2022-11-28T21:41:53.184Z,29.07
2022-11-28T21:44:21.201Z,28.53
2022-11-28T21:46:49.329Z,29.67
2022-11-28T21:49:17.310Z,28.80
2022-11-28T21:51:47.093Z,29.43
2022-11-28T21:54:15.106Z,28.40
2022-11-28T21:56:43.145Z,28.37
2022-11-28T21:59:13.437Z,27.97
2022-11-28T22:01:41.621Z,28.23
2022-11-28T22:04:11.420Z,28.53
2022-11-28T22:06:39.493Z,27.67
2022-11-28T22:09:10.220Z,30.03
2022-11-28T22:11:39.557Z,29.47
2022-11-28T22:14:09.153Z,29.80
2022-11-28T22:16:37.231Z,29.10
2022-11-28T22:19:05.249Z,28.70
2022-11-28T22:24:22.826Z,29.60
2022-11-28T22:26:51.047Z,28.83
2022-11-28T22:29:19.115Z,29.43
2022-11-28T22:31:47.215Z,29.30
2022-11-28T22:34:15.269Z,29.23
2022-11-28T22:36:43.231Z,28.87
2022-11-28T22:39:11.723Z,28.73
2022-11-28T22:41:41.345Z,28.83
2022-11-28T22:44:11.223Z,29.90
2022-11-28T22:46:39.521Z,30.63
2022-11-28T22:49:07.979Z,29.53
2022-11-28T22:51:36.973Z,32.60
2022-11-28T22:54:05.276Z,33.23
2022-11-28T22:56:35.500Z,34.00
2022-11-28T22:59:05.758Z,35.77
2022-11-28T23:01:35.170Z,34.87
2022-11-28T23:04:03.209Z,35.23
2022-11-28T23:06:32.989Z,32.37
2022-11-28T23:09:02.673Z,30.00
2022-11-28T23:11:32.687Z,27.83
2022-11-28T23:14:01.258Z,29.57
2022-11-28T23:16:32.438Z,28.70
2022-11-28T23:19:02.904Z,28.67
2022-11-28T23:21:33.108Z,25.97
2022-11-28T23:24:01.450Z,29.13
2022-11-28T23:26:31.347Z,31.07
2022-11-28T23:29:01.210Z,29.27
2022-11-28T23:31:32.673Z,30.40
2022-11-28T23:34:01.642Z,30.97
2022-11-28T23:36:33.715Z,31.23
2022-11-28T23:39:07.988Z,30.43
2022-11-28T23:41:36.221Z,31.90
2022-11-28T23:44:04.186Z,30.13
2022-11-28T23:46:34.507Z,30.93
2022-11-28T23:49:05.263Z,31.13
2022-11-28T23:51:33.683Z,31.13
2022-11-28T23:54:01.755Z,29.83
2022-11-28T23:56:31.355Z,30.20
2022-11-28T23:59:02.320Z,30.17
